Time;durP1;ratioP1;P1;durP2;ratioP2;P2;SDS_P1;SDS_P2;PMS_P1;PMS_P2;Temp;Humidity;BMP_temperature;BMP_pressure;BME280_temperature;BME280_humidity;BME280_pressure;Samples;Min_cycle;Max_cycle;Signal;HPM_P1;HPM_P2
2023/12/02 00:01:21;;;;;;;10.30;3.90;;;;;;;;;;5033801;28;20196;-87
2023/12/02 00:03:47;;;;;;;9.18;3.60;;;2.80;99.90;;;;;;5038901;28;20020;-87
2023/12/02 00:06:13;;;;;;;8.73;3.47;;;1.70;99.90;;;;;;5055679;28;20799;-87
2023/12/02 00:08:39;;;;;;;11.07;4.17;;;1.80;99.90;;;;;;5046606;28;20020;-87
2023/12/02 00:11:04;;;;;;;11.00;4.38;;;1.70;99.90;;;;;;5036300;28;20499;-86
2023/12/02 00:13:30;;;;;;;8.40;3.73;;;1.80;99.90;;;;;;5044122;28;20407;-87
2023/12/02 00:15:56;;;;;;;9.43;3.53;;;1.80;99.90;;;;;;5034124;28;20071;-87
2023/12/02 00:18:22;;;;;;;11.83;4.23;;;;;;;;;;5035947;28;20387;-87
2023/12/02 00:20:48;;;;;;;10.23;3.80;;;;;;;;;;5040097;28;20036;-87
2023/12/02 00:23:14;;;;;;;8.80;3.95;;;1.80;99.90;;;;;;5021370;28;20329;-88
2023/12/02 00:25:40;;;;;;;10.40;4.15;;;1.90;99.90;;;;;;5049451;28;20202;-87
2023/12/02 00:28:06;;;;;;;9.87;3.73;;;1.80;99.90;;;;;;5044419;28;20023;-86
2023/12/02 00:30:32;;;;;;;15.00;4.32;;;;;;;;;;5041692;28;20643;-87
2023/12/02 00:32:58;;;;;;;10.23;4.20;;;;;;;;;;5020052;28;20915;-87
2023/12/02 00:35:24;;;;;;;10.10;4.20;;;1.90;99.90;;;;;;5039391;28;20875;-87
2023/12/02 00:37:50;;;;;;;9.40;3.70;;;;;;;;;;5042562;28;20086;-86
2023/12/02 00:40:16;;;;;;;9.70;3.58;;;1.80;99.90;;;;;;5050451;28;20142;-86
2023/12/02 00:42:42;;;;;;;9.65;4.20;;;1.80;99.90;;;;;;5048620;28;20021;-87
2023/12/02 00:45:08;;;;;;;11.43;4.20;;;1.80;99.90;;;;;;5030842;28;20024;-87
2023/12/02 00:47:34;;;;;;;12.45;4.68;;;1.80;99.90;;;;;;5039439;28;20035;-88
2023/12/02 00:50:00;;;;;;;10.13;3.93;;;3.60;99.90;;;;;;5056682;28;20027;-86
2023/12/02 00:52:25;;;;;;;10.53;4.07;;;1.90;99.90;;;;;;5041768;28;20801;-86
2023/12/02 00:54:51;;;;;;;10.52;4.00;;;1.80;99.90;;;;;;5025648;28;20036;-87
2023/12/02 00:57:17;;;;;;;9.67;4.03;;;;;;;;;;5064014;28;20063;-87
2023/12/02 00:59:43;;;;;;;13.00;4.60;;;;;;;;;;5051368;28;20075;-87
2023/12/02 01:02:10;;;;;;;10.88;4.38;;;1.90;99.90;;;;;;5058208;28;20036;-87
2023/12/02 01:04:36;;;;;;;13.40;4.97;;;2.00;99.90;;;;;;5029780;28;20021;-87
2023/12/02 01:07:02;;;;;;;10.90;4.20;;;2.10;99.90;;;;;;5055605;28;20122;-85
2023/12/02 01:09:28;;;;;;;10.88;4.07;;;1.90;99.90;;;;;;5054984;28;20591;-86
2023/12/02 01:11:53;;;;;;;11.73;4.73;;;1.90;99.90;;;;;;5050269;28;20032;-86
2023/12/02 01:14:19;;;;;;;12.20;4.57;;;0.10;99.90;;;;;;5056053;28;20101;-86
2023/12/02 01:16:45;;;;;;;8.60;3.20;;;0.10;99.90;;;;;;5083611;28;20028;-87
2023/12/02 01:19:10;;;;;;;9.48;3.35;;;0.30;99.90;;;;;;5059714;28;20149;-83
2023/12/02 01:21:36;;;;;;;12.27;4.77;;;;;;;;;;5087254;28;20016;-85
2023/12/02 01:24:03;;;;;;;11.20;3.88;;;;;;;;;;5073003;28;20035;-86
2023/12/02 01:26:28;;;;;;;12.80;4.03;;;1.80;99.90;;;;;;5067271;28;20025;-85
2023/12/02 01:28:54;;;;;;;12.97;4.97;;;;;;;;;;5090882;28;20019;-85
2023/12/02 01:31:20;;;;;;;9.43;4.03;;;1.20;99.90;;;;;;5060107;28;20332;-85
2023/12/02 01:33:46;;;;;;;10.15;3.88;;;3.80;99.90;;;;;;5068084;28;20016;-85
2023/12/02 01:36:12;;;;;;;11.27;4.50;;;2.00;99.90;;;;;;5041300;28;20059;-86
2023/12/02 01:38:38;;;;;;;9.65;3.60;;;;;;;;;;5085659;28;20104;-86
2023/12/02 01:41:04;;;;;;;13.38;5.15;;;1.90;99.90;;;;;;5032853;28;20229;-86
2023/12/02 01:43:30;;;;;;;13.07;5.15;;;1.80;99.90;;;;;;5044044;28;20028;-85
2023/12/02 01:45:56;;;;;;;10.53;4.53;;;0.90;99.90;;;;;;5050802;28;20107;-85
2023/12/02 01:48:27;;;;;;;11.35;4.32;;;2.30;99.90;;;;;;5028480;28;20207;-87
2023/12/02 01:50:53;;;;;;;11.43;4.10;;;0.00;99.90;;;;;;5032623;28;20032;-85
2023/12/02 01:53:19;;;;;;;10.45;4.05;;;1.90;99.90;;;;;;5034009;28;20081;-85
2023/12/02 01:55:45;;;;;;;8.10;3.73;;;;;;;;;;5030190;28;20032;-86
2023/12/02 01:58:11;;;;;;;8.80;3.95;;;1.90;99.90;;;;;;5052934;28;20558;-85
2023/12/02 02:00:37;;;;;;;13.50;4.70;;;0.00;99.90;;;;;;5026718;28;20021;-86
2023/12/02 02:03:02;;;;;;;11.25;4.20;;;1.90;99.90;;;;;;5040722;28;20139;-85
2023/12/02 02:05:28;;;;;;;11.07;4.70;;;3.50;99.90;;;;;;5021145;28;20032;-84
2023/12/02 02:07:54;;;;;;;9.03;3.60;;;1.80;99.90;;;;;;5052053;28;20321;-85
2023/12/02 02:10:21;;;;;;;9.70;4.18;;;1.80;99.90;;;;;;5045775;28;20028;-84
2023/12/02 02:12:46;;;;;;;12.25;4.50;;;1.80;99.90;;;;;;5035822;28;20087;-85
2023/12/02 02:15:13;;;;;;;10.40;4.17;;;2.70;99.90;;;;;;5042847;28;20118;-85
2023/12/02 02:17:39;;;;;;;9.13;3.78;;;1.70;99.90;;;;;;5026435;28;20024;-85
2023/12/02 02:20:05;;;;;;;10.52;4.40;;;1.80;99.90;;;;;;5038512;28;20042;-85
2023/12/02 02:22:31;;;;;;;10.93;4.88;;;1.80;99.90;;;;;;5022310;28;20028;-86
2023/12/02 02:24:57;;;;;;;12.43;5.67;;;;;;;;;;5031774;28;20477;-85
2023/12/02 02:27:23;;;;;;;12.50;4.90;;;1.70;99.90;;;;;;5041282;28;20028;-85
2023/12/02 02:29:49;;;;;;;11.40;3.80;;;1.80;99.90;;;;;;5070680;28;20028;-85
2023/12/02 02:32:14;;;;;;;10.27;3.90;;;1.70;99.90;;;;;;5054182;28;20025;-85
2023/12/02 02:34:42;;;;;;;11.63;4.40;;;2.20;99.90;;;;;;5036234;28;20032;-85
2023/12/02 02:37:09;;;;;;;12.48;5.15;;;;;;;;;;5038515;28;20028;-84
2023/12/02 02:39:35;;;;;;;11.07;4.80;;;1.80;99.90;;;;;;5048550;28;20489;-85
2023/12/02 02:42:06;;;;;;;10.27;4.67;;;1.80;99.90;;;;;;5031860;28;20032;-85
2023/12/02 02:44:36;;;;;;;11.50;4.60;;;2.60;99.90;;;;;;5053518;28;20450;-85
2023/12/02 02:47:02;;;;;;;8.85;3.70;;;1.70;99.90;;;;;;5040337;28;20062;-86
2023/12/02 02:49:28;;;;;;;10.95;4.57;;;;;;;;;;5038019;28;20583;-85
2023/12/02 02:51:55;;;;;;;10.07;4.10;;;1.70;99.90;;;;;;5030522;28;20070;-86
2023/12/02 02:54:21;;;;;;;11.35;4.38;;;2.10;99.90;;;;;;5032836;28;20032;-83
2023/12/02 02:56:47;;;;;;;12.63;4.47;;;3.90;99.90;;;;;;5028319;28;20325;-85
2023/12/02 02:59:13;;;;;;;10.10;4.13;;;4.70;99.90;;;;;;5035585;28;20055;-84
2023/12/02 03:01:42;;;;;;;8.93;3.97;;;1.70;99.90;;;;;;5063405;28;20099;-85
2023/12/02 03:04:08;;;;;;;10.23;4.68;;;1.70;99.90;;;;;;5023570;28;20024;-83
2023/12/02 03:06:34;;;;;;;8.27;3.83;;;2.30;99.90;;;;;;5032107;28;20374;-84
2023/12/02 03:09:00;;;;;;;8.13;3.45;;;1.70;99.90;;;;;;5019222;28;20024;-83
2023/12/02 03:11:26;;;;;;;8.70;3.58;;;4.50;99.90;;;;;;5057538;28;20561;-84
2023/12/02 03:13:52;;;;;;;7.73;3.40;;;1.70;99.90;;;;;;5043161;28;20028;-84
2023/12/02 03:16:18;;;;;;;10.00;4.05;;;1.70;99.90;;;;;;5066614;28;20289;-85
2023/12/02 03:18:43;;;;;;;9.10;4.10;;;3.30;99.90;;;;;;5015249;28;21515;-83
2023/12/02 03:21:09;;;;;;;9.60;4.50;;;;;;;;;;5033070;28;20469;-83
2023/12/02 03:23:35;;;;;;;10.95;4.13;;;;;;;;;;5026413;28;20256;-84
2023/12/02 03:26:02;;;;;;;10.82;4.40;;;;;;;;;;5064909;28;20097;-84
2023/12/02 03:28:27;;;;;;;8.87;3.63;;;1.60;99.90;;;;;;5056796;28;20016;-85
2023/12/02 03:30:53;;;;;;;8.48;3.50;;;;;;;;;;5061058;28;20566;-84
2023/12/02 03:33:19;;;;;;;10.35;4.15;;;1.50;99.90;;;;;;5035636;28;20028;-84
2023/12/02 03:35:45;;;;;;;9.57;3.77;;;-1.10;99.90;;;;;;5044666;28;20669;-84
2023/12/02 03:38:10;;;;;;;9.60;4.32;;;2.50;99.90;;;;;;5050169;28;20431;-84
2023/12/02 03:40:36;;;;;;;10.97;4.63;;;4.20;99.90;;;;;;5048450;28;20610;-86
2023/12/02 03:43:02;;;;;;;10.23;3.97;;;1.60;99.90;;;;;;5034914;28;20599;-86
2023/12/02 03:45:28;;;;;;;11.80;4.10;;;;;;;;;;5024300;28;20415;-85
2023/12/02 03:47:54;;;;;;;10.90;4.35;;;1.60;99.90;;;;;;5043973;28;20028;-85
2023/12/02 03:50:19;;;;;;;10.30;4.47;;;-0.10;99.90;;;;;;5031781;28;20021;-85
2023/12/02 03:52:45;;;;;;;10.77;4.80;;;1.60;99.90;;;;;;5049567;28;20578;-85
2023/12/02 03:55:11;;;;;;;9.85;4.25;;;;;;;;;;5017860;28;20041;-86
2023/12/02 03:57:37;;;;;;;10.77;4.30;;;1.70;99.90;;;;;;5052554;28;20704;-86
2023/12/02 04:00:11;;;;;;;9.20;3.93;;;1.70;99.90;;;;;;5049922;28;20034;-86
2023/12/02 04:02:40;;;;;;;10.18;4.25;;;1.70;99.90;;;;;;5050174;28;20482;-87
2023/12/02 04:05:10;;;;;;;7.50;3.22;;;1.80;99.90;;;;;;5068754;28;20016;-86
2023/12/02 04:07:37;;;;;;;8.77;3.60;;;1.80;99.90;;;;;;5021045;28;20088;-86
2023/12/02 04:10:03;;;;;;;9.77;3.80;;;3.30;99.90;;;;;;5024621;28;20026;-86
2023/12/02 04:12:30;;;;;;;7.63;3.20;;;1.80;99.90;;;;;;5035491;28;20547;-86
2023/12/02 04:14:56;;;;;;;9.30;3.47;;;1.80;99.90;;;;;;5044141;28;20552;-87
2023/12/02 04:17:22;;;;;;;10.17;4.30;;;2.40;99.90;;;;;;5048741;28;20023;-86
2023/12/02 04:19:48;;;;;;;8.68;3.58;;;1.80;99.90;;;;;;5055120;28;20248;-87
2023/12/02 04:22:18;;;;;;;11.43;3.92;;;3.60;99.90;;;;;;5026293;28;20024;-85
2023/12/02 04:24:45;;;;;;;8.70;3.70;;;1.80;99.90;;;;;;5038972;28;20248;-86
2023/12/02 04:27:12;;;;;;;10.40;3.60;;;1.80;99.90;;;;;;5018844;28;20511;-85
2023/12/02 04:29:41;;;;;;;11.82;4.35;;;1.80;99.90;;;;;;5055824;28;20171;-85
2023/12/02 04:32:08;;;;;;;10.73;4.50;;;1.80;99.90;;;;;;5046120;28;20052;-86
2023/12/02 04:34:34;;;;;;;11.52;4.32;;;1.90;99.90;;;;;;5054904;28;20115;-86
2023/12/02 04:37:01;;;;;;;10.43;4.18;;;1.80;99.90;;;;;;5047028;28;20036;-87
2023/12/02 04:39:27;;;;;;;8.97;3.63;;;1.80;99.90;;;;;;5063792;28;20044;-86
2023/12/02 04:41:53;;;;;;;10.18;3.72;;;1.80;99.90;;;;;;5035046;28;20028;-87
2023/12/02 04:44:20;;;;;;;9.05;3.95;;;1.80;99.90;;;;;;5037641;28;20065;-87
2023/12/02 04:46:45;;;;;;;10.00;3.97;;;3.40;99.90;;;;;;5031955;28;20627;-87
2023/12/02 04:49:15;;;;;;;9.67;3.93;;;;;;;;;;5059032;28;20033;-86
2023/12/02 04:51:41;;;;;;;8.82;3.47;;;;;;;;;;5034184;28;20044;-87
2023/12/02 04:54:06;;;;;;;8.23;3.85;;;1.70;99.90;;;;;;5053875;28;20061;-88
2023/12/02 04:56:32;;;;;;;7.83;3.67;;;3.80;99.90;;;;;;5014359;28;20111;-87
2023/12/02 04:58:58;;;;;;;10.57;4.07;;;;;;;;;;5062996;28;20496;-84
2023/12/02 05:01:24;;;;;;;9.30;4.00;;;-0.70;99.90;;;;;;5023086;28;20234;-85
2023/12/02 05:03:50;;;;;;;10.23;4.20;;;3.10;99.90;;;;;;5064105;28;20217;-86
2023/12/02 05:06:17;;;;;;;8.60;3.92;;;1.50;99.90;;;;;;5053688;28;20016;-85
2023/12/02 05:08:44;;;;;;;9.20;3.92;;;-0.40;99.90;;;;;;5025132;28;20062;-86
2023/12/02 05:11:17;;;;;;;9.67;4.10;;;2.20;99.90;;;;;;5049018;28;20020;-86
2023/12/02 05:13:43;;;;;;;10.45;4.40;;;1.40;99.90;;;;;;5036154;28;20085;-86
2023/12/02 05:16:12;;;;;;;10.05;3.97;;;-0.60;99.90;;;;;;5052057;28;20085;-85
2023/12/02 05:18:40;;;;;;;9.95;4.18;;;2.80;99.90;;;;;;5026773;28;20071;-86
2023/12/02 05:21:07;;;;;;;11.33;4.80;;;1.40;99.90;;;;;;5069589;28;20048;-85
2023/12/02 05:23:32;;;;;;;10.98;4.22;;;1.40;99.90;;;;;;5041315;28;20123;-84
2023/12/02 05:25:58;;;;;;;9.60;3.88;;;1.40;99.90;;;;;;5042632;28;20099;-85
2023/12/02 05:28:24;;;;;;;7.47;3.70;;;;;;;;;;5018867;28;20024;-85
2023/12/02 05:30:50;;;;;;;11.35;4.38;;;1.50;99.90;;;;;;5037748;28;20032;-86
2023/12/02 05:33:17;;;;;;;10.60;4.50;;;1.50;99.90;;;;;;5032664;28;20035;-86
2023/12/02 05:35:43;;;;;;;8.53;4.03;;;1.50;99.90;;;;;;5052467;28;20028;-85
2023/12/02 05:38:09;;;;;;;9.63;4.13;;;1.60;99.90;;;;;;5052249;28;20521;-86
2023/12/02 05:40:34;;;;;;;10.30;4.07;;;1.60;99.90;;;;;;5041080;28;20751;-85
2023/12/02 05:43:00;;;;;;;9.37;4.00;;;;;;;;;;5039204;28;20328;-86
2023/12/02 05:45:26;;;;;;;8.63;3.60;;;1.70;99.90;;;;;;5051907;28;20492;-86
2023/12/02 05:47:52;;;;;;;8.63;3.37;;;2.50;99.90;;;;;;5048491;28;20089;-86
2023/12/02 05:50:17;;;;;;;9.02;3.65;;;0.70;99.90;;;;;;5031630;28;20028;-85
2023/12/02 05:52:43;;;;;;;6.83;3.23;;;1.80;99.90;;;;;;5040666;28;20135;-85
2023/12/02 05:55:09;;;;;;;7.20;3.15;;;1.80;99.90;;;;;;5031213;28;20032;-86
2023/12/02 05:57:35;;;;;;;9.10;3.50;;;1.80;99.90;;;;;;5035564;28;20663;-85
2023/12/02 06:00:01;;;;;;;7.73;3.43;;;2.10;99.90;;;;;;5034176;28;20127;-85
2023/12/02 06:02:27;;;;;;;10.07;4.15;;;1.90;99.90;;;;;;5034726;28;20528;-86
2023/12/02 06:04:53;;;;;;;8.70;3.60;;;0.70;99.90;;;;;;5024420;28;20481;-85
2023/12/02 06:07:18;;;;;;;8.15;3.15;;;-0.20;99.90;;;;;;5054312;28;20596;-86
2023/12/02 06:09:45;;;;;;;7.35;3.40;;;;;;;;;;5054530;28;20031;-86
2023/12/02 06:12:11;;;;;;;9.15;3.50;;;;;;;;;;5015843;28;20156;-86
2023/12/02 06:14:37;;;;;;;10.67;4.33;;;2.00;99.90;;;;;;5034953;28;20020;-86
2023/12/02 06:17:03;;;;;;;10.63;3.97;;;2.00;99.90;;;;;;5047571;28;20024;-85
2023/12/02 06:19:29;;;;;;;6.07;3.17;;;2.00;99.90;;;;;;5072197;28;20080;-87
2023/12/02 06:21:55;;;;;;;7.67;3.40;;;2.00;99.90;;;;;;5036641;28;20853;-85
2023/12/02 06:24:21;;;;;;;9.18;3.33;;;2.10;99.90;;;;;;5059019;28;20141;-86
2023/12/02 06:26:46;;;;;;;9.03;3.70;;;3.20;99.90;;;;;;5037534;28;20020;-85
2023/12/02 06:29:12;;;;;;;9.95;4.15;;;1.10;99.90;;;;;;5045957;28;20016;-84
2023/12/02 06:31:38;;;;;;;10.97;4.00;;;3.00;99.90;;;;;;5044875;28;20036;-86
2023/12/02 06:34:06;;;;;;;8.40;3.63;;;2.10;99.90;;;;;;5080109;28;20046;-85
2023/12/02 06:36:32;;;;;;;9.48;3.22;;;;;;;;;;5038485;28;20315;-84
2023/12/02 06:38:58;;;;;;;8.10;3.55;;;2.10;99.90;;;;;;5067338;28;20035;-85
2023/12/02 06:41:24;;;;;;;7.63;3.13;;;0.10;99.90;;;;;;5053160;28;21458;-84
2023/12/02 06:43:50;;;;;;;9.50;4.00;;;;;;;;;;5084462;28;20036;-85
2023/12/02 06:46:23;;;;;;;13.02;3.88;;;2.10;99.90;;;;;;5042846;28;20108;-85
2023/12/02 06:48:49;;;;;;;9.77;3.85;;;2.20;99.90;;;;;;5060208;28;20087;-85
2023/12/02 06:51:15;;;;;;;8.40;3.53;;;2.20;99.90;;;;;;5078851;28;20101;-84
2023/12/02 06:53:41;;;;;;;9.57;3.83;;;2.20;99.90;;;;;;5080555;28;20265;-87
2023/12/02 06:56:24;;;;;;;9.95;4.20;;;2.20;99.90;;;;;;5093588;28;20027;-85
2023/12/02 06:58:51;;;;;;;11.13;4.20;;;2.10;99.90;;;;;;5059183;28;20078;-85
2023/12/02 07:01:26;;;;;;;10.13;3.60;;;2.10;99.90;;;;;;5053704;28;20094;-85
2023/12/02 07:03:56;;;;;;;9.05;3.40;;;5.10;99.90;;;;;;5087544;28;20043;-85
2023/12/02 07:06:22;;;;;;;9.48;3.72;;;2.10;99.90;;;;;;5062558;28;20074;-85
2023/12/02 07:08:49;;;;;;;11.27;4.10;;;2.80;99.90;;;;;;5045683;28;20088;-85
2023/12/02 07:11:15;;;;;;;10.68;3.83;;;3.10;99.90;;;;;;5046824;28;20012;-85
2023/12/02 07:13:41;;;;;;;9.23;3.73;;;1.80;99.90;;;;;;5035148;28;20036;-85
2023/12/02 07:16:07;;;;;;;11.30;4.57;;;1.90;99.90;;;;;;5033559;28;20937;-85
2023/12/02 07:18:33;;;;;;;11.35;4.25;;;1.90;99.90;;;;;;5037955;28;20036;-84
2023/12/02 07:21:00;;;;;;;9.73;4.30;;;;;;;;;;5060416;28;20132;-84
2023/12/02 07:23:26;;;;;;;9.32;4.47;;;3.90;99.90;;;;;;5045956;28;20040;-84
2023/12/02 07:25:52;;;;;;;12.43;4.57;;;1.70;99.90;;;;;;5047465;28;20036;-84
2023/12/02 07:28:18;;;;;;;12.00;4.55;;;4.10;99.90;;;;;;5055085;28;20505;-84
2023/12/02 07:30:44;;;;;;;9.80;4.25;;;1.50;99.90;;;;;;5040170;28;20044;-83
2023/12/02 07:33:10;;;;;;;9.67;4.10;;;;;;;;;;5055462;28;20401;-84
2023/12/02 07:35:35;;;;;;;9.68;4.20;;;1.40;99.90;;;;;;5039764;28;20530;-84
2023/12/02 07:38:01;;;;;;;7.68;3.28;;;1.30;99.90;;;;;;5059559;28;20112;-84
2023/12/02 07:40:27;;;;;;;8.97;3.50;;;;;;;;;;5036568;28;20104;-84
2023/12/02 07:42:53;;;;;;;8.10;3.80;;;;;;;;;;5067714;28;20031;-83
2023/12/02 07:45:19;;;;;;;8.07;3.38;;;1.20;99.90;;;;;;5032539;28;20077;-84
2023/12/02 07:47:44;;;;;;;8.77;4.00;;;1.20;99.90;;;;;;5035842;28;20906;-83
2023/12/02 07:50:10;;;;;;;10.40;4.17;;;1.10;99.90;;;;;;5071896;28;20055;-84
2023/12/02 07:52:36;;;;;;;9.38;4.25;;;1.10;99.90;;;;;;5041443;28;20253;-83
2023/12/02 07:55:02;;;;;;;8.70;3.50;;;1.10;99.90;;;;;;5061850;28;20032;-83
2023/12/02 07:57:28;;;;;;;7.07;3.27;;;1.10;99.90;;;;;;5025251;28;20287;-83
2023/12/02 07:59:54;;;;;;;8.35;3.72;;;;;;;;;;5048710;28;20129;-84
2023/12/02 08:02:19;;;;;;;11.25;4.45;;;2.90;99.90;;;;;;5036776;28;20035;-84
2023/12/02 08:04:47;;;;;;;8.50;3.73;;;1.00;99.90;;;;;;5045198;28;20450;-83
2023/12/02 08:07:12;;;;;;;10.25;4.10;;;1.10;99.90;;;;;;5058228;28;20439;-84
2023/12/02 08:09:38;;;;;;;10.63;5.13;;;0.70;99.90;;;;;;5044212;28;20238;-84
2023/12/02 08:12:04;;;;;;;10.65;4.18;;;1.40;99.90;;;;;;5028958;28;20392;-84
2023/12/02 08:14:30;;;;;;;9.65;4.25;;;0.90;99.90;;;;;;5033657;28;20356;-85
2023/12/02 08:16:56;;;;;;;11.00;4.93;;;1.30;99.90;;;;;;5032188;28;20712;-85
2023/12/02 08:19:22;;;;;;;9.88;3.97;;;0.90;99.90;;;;;;5033277;28;20024;-85
2023/12/02 08:21:49;;;;;;;9.23;4.05;;;0.90;99.90;;;;;;5029543;28;20043;-85
2023/12/02 08:24:15;;;;;;;9.82;4.47;;;;;;;;;;5062428;28;20029;-85
2023/12/02 08:26:41;;;;;;;9.80;4.73;;;2.80;99.90;;;;;;5024318;28;20532;-84
2023/12/02 08:29:07;;;;;;;10.57;4.95;;;1.00;99.90;;;;;;5052256;28;20028;-86
2023/12/02 08:31:32;;;;;;;10.60;4.50;;;-1.20;99.90;;;;;;5037407;28;20946;-85
2023/12/02 08:33:58;;;;;;;9.47;4.73;;;;;;;;;;5069896;28;20282;-86
2023/12/02 08:36:24;;;;;;;10.00;4.65;;;1.10;99.90;;;;;;5031713;28;20507;-86
2023/12/02 08:38:50;;;;;;;13.37;5.63;;;0.30;99.90;;;;;;5050388;28;20059;-87
2023/12/02 08:41:16;;;;;;;11.88;5.28;;;;;;;;;;5036171;28;20904;-85
2023/12/02 08:43:42;;;;;;;11.02;4.88;;;1.40;99.90;;;;;;5031746;28;20032;-86
2023/12/02 08:46:14;;;;;;;12.63;4.97;;;1.50;99.90;;;;;;5052503;28;20031;-86
2023/12/02 08:48:41;;;;;;;9.65;4.10;;;1.50;99.90;;;;;;5026020;28;20488;-87
2023/12/02 08:51:07;;;;;;;10.00;4.63;;;1.60;99.90;;;;;;5030259;28;20032;-86
2023/12/02 08:53:33;;;;;;;10.55;4.93;;;1.60;99.90;;;;;;5043387;28;20028;-85
2023/12/02 08:55:59;;;;;;;10.33;4.53;;;1.70;99.90;;;;;;5042836;28;20036;-86
2023/12/02 08:58:24;;;;;;;8.25;4.15;;;2.50;99.90;;;;;;5027687;28;20456;-85
2023/12/02 09:00:50;;;;;;;11.07;4.50;;;1.70;99.90;;;;;;5055778;28;20020;-86
2023/12/02 09:03:16;;;;;;;10.93;4.97;;;0.10;99.90;;;;;;5028827;28;20484;-85
2023/12/02 09:05:42;;;;;;;11.15;4.47;;;1.90;99.90;;;;;;5028057;28;20036;-86
2023/12/02 09:08:08;;;;;;;14.33;5.23;;;1.90;99.90;;;;;;5034830;28;20501;-85
2023/12/02 09:10:34;;;;;;;13.98;5.15;;;2.00;99.90;;;;;;5042109;28;20237;-86
2023/12/02 09:12:59;;;;;;;11.53;4.97;;;2.10;99.90;;;;;;5031331;28;20055;-86
2023/12/02 09:15:38;;;;;;;10.38;4.40;;;2.20;99.90;;;;;;5036552;28;20036;-86
2023/12/02 09:18:08;;;;;;;12.38;4.95;;;2.30;99.90;;;;;;5067364;28;21022;-86
2023/12/02 09:20:53;;;;;;;13.17;4.97;;;4.50;99.90;;;;;;5008814;28;20453;-86
2023/12/02 09:23:20;;;;;;;11.80;4.40;;;2.50;99.90;;;;;;5037829;28;20067;-85
2023/12/02 09:25:47;;;;;;;10.75;4.55;;;2.60;99.90;;;;;;5045412;28;20153;-85
2023/12/02 09:28:18;;;;;;;12.75;5.38;;;1.40;99.90;;;;;;5022407;28;20078;-85
2023/12/02 09:30:58;;;;;;;14.32;5.78;;;4.60;99.90;;;;;;5026450;28;20490;-86
2023/12/02 09:33:28;;;;;;;14.90;5.53;;;2.70;99.90;;;;;;5047295;28;20123;-85
2023/12/02 09:35:58;;;;;;;12.77;4.95;;;3.10;99.90;;;;;;5038248;28;20042;-85
2023/12/02 09:38:25;;;;;;;12.27;4.70;;;3.20;99.90;;;;;;4995236;28;20072;-85
2023/12/02 09:41:30;;;;;;;13.50;5.00;;;3.20;99.90;;;;;;4998902;28;20065;-85
2023/12/02 09:44:12;;;;;;;10.23;4.55;;;4.40;99.90;;;;;;4969461;28;20766;-85
2023/12/02 09:46:50;;;;;;;14.03;5.13;;;5.00;99.90;;;;;;4986672;28;20056;-85
2023/12/02 09:49:22;;;;;;;13.93;5.72;;;5.60;99.90;;;;;;5029694;28;20171;-83
2023/12/02 09:51:59;;;;;;;11.93;5.65;;;6.70;99.90;;;;;;4999059;28;20517;-85
2023/12/02 09:54:47;;;;;;;10.93;4.90;;;6.60;99.90;;;;;;5019432;28;20024;-86
2023/12/02 09:57:28;;;;;;;11.10;5.38;;;7.00;99.90;;;;;;5015740;28;20785;-86
2023/12/02 10:00:00;;;;;;;9.53;4.50;;;7.70;99.90;;;;;;4998555;28;20116;-86
2023/12/02 10:02:31;;;;;;;11.02;4.95;;;8.20;99.90;;;;;;5015416;28;20060;-84
2023/12/02 10:05:09;;;;;;;9.93;4.78;;;8.60;99.90;;;;;;4987981;28;20698;-86
2023/12/02 10:07:41;;;;;;;7.90;4.05;;;8.90;99.90;;;;;;5009355;28;20510;-84
2023/12/02 10:10:09;;;;;;;11.43;4.97;;;9.20;99.90;;;;;;5007302;28;20037;-82
2023/12/02 10:12:53;;;;;;;10.40;4.50;;;9.70;99.90;;;;;;5005130;28;20067;-85
2023/12/02 10:15:22;;;;;;;9.93;4.95;;;9.80;99.90;;;;;;5010867;28;20537;-83
2023/12/02 10:18:04;;;;;;;10.82;4.68;;;11.20;99.90;;;;;;5031200;28;20544;-84
2023/12/02 10:20:34;;;;;;;9.30;4.85;;;10.30;99.90;;;;;;5019583;28;20037;-84
2023/12/02 10:23:12;;;;;;;10.57;4.68;;;10.40;99.90;;;;;;4986743;28;20108;-83
2023/12/02 10:25:49;;;;;;;10.30;4.63;;;10.60;99.90;;;;;;5000697;28;20029;-85
2023/12/02 10:28:32;;;;;;;10.27;5.10;;;10.80;99.90;;;;;;5008561;28;20619;-84
2023/12/02 10:31:01;;;;;;;9.30;4.53;;;10.90;99.90;;;;;;5011895;28;20282;-84
2023/12/02 10:33:33;;;;;;;9.63;4.80;;;11.10;99.90;;;;;;5039729;28;20142;-84
2023/12/02 10:36:05;;;;;;;9.63;5.07;;;11.30;99.90;;;;;;5028565;28;20096;-84
2023/12/02 10:38:40;;;;;;;9.77;5.30;;;12.40;99.90;;;;;;5008149;28;20048;-85
2023/12/02 10:41:16;;;;;;;10.23;5.10;;;11.70;99.90;;;;;;5027094;28;20444;-82
2023/12/02 10:43:44;;;;;;;9.43;5.00;;;11.90;99.90;;;;;;5007948;28;20387;-82
2023/12/02 10:46:12;;;;;;;10.00;4.95;;;12.10;99.90;;;;;;4987063;28;20542;-83
2023/12/02 10:48:41;;;;;;;10.23;5.78;;;12.20;99.90;;;;;;5015384;28;20021;-84
2023/12/02 10:51:09;;;;;;;10.00;4.70;;;11.80;99.90;;;;;;5013354;28;20035;-84
2023/12/02 10:53:36;;;;;;;9.77;4.85;;;12.40;99.90;;;;;;5002998;28;20061;-85
2023/12/02 10:56:10;;;;;;;9.82;4.85;;;12.50;99.90;;;;;;5005100;28;20025;-84
2023/12/02 10:58:39;;;;;;;9.18;5.00;;;12.60;99.90;;;;;;5004366;28;20552;-85
2023/12/02 11:01:09;;;;;;;11.48;5.60;;;12.80;99.90;;;;;;4996962;28;20029;-82
2023/12/02 11:03:45;;;;;;;9.70;5.23;;;13.20;99.90;;;;;;4996134;28;20025;-84
2023/12/02 11:06:31;;;;;;;8.63;4.53;;;13.10;99.90;;;;;;5015176;28;20029;-85
2023/12/02 11:09:28;;;;;;;8.82;4.68;;;13.30;99.90;;;;;;5007838;28;20228;-84
2023/12/02 11:12:13;;;;;;;11.27;5.30;;;13.40;99.90;;;;;;4974831;28;20079;-84
2023/12/02 11:14:41;;;;;;;9.15;4.57;;;13.50;99.90;;;;;;4991231;28;20218;-84
2023/12/02 11:17:19;;;;;;;10.60;5.20;;;13.40;99.90;;;;;;4996560;28;20024;-84
2023/12/02 11:20:14;;;;;;;8.73;4.85;;;13.20;99.90;;;;;;4996530;28;20191;-84
2023/12/02 11:23:12;;;;;;;10.32;5.30;;;11.40;99.90;;;;;;5004432;28;20444;-84
2023/12/02 11:26:16;;;;;;;8.73;4.70;;;10.70;99.90;;;;;;5001407;28;20127;-82
2023/12/02 11:28:50;;;;;;;9.95;5.10;;;12.30;99.90;;;;;;4992868;28;20129;-83
2023/12/02 11:31:26;;;;;;;10.83;4.80;;;12.00;99.90;;;;;;4997301;28;20029;-84
2023/12/02 11:34:15;;;;;;;10.25;4.65;;;11.70;99.90;;;;;;5018786;28;20041;-82
2023/12/02 11:37:07;;;;;;;9.43;4.70;;;11.50;99.90;;;;;;4945243;28;20143;-83
2023/12/02 11:40:00;;;;;;;9.60;4.75;;;11.40;99.90;;;;;;5031612;28;20040;-83
2023/12/02 11:42:33;;;;;;;10.25;4.70;;;11.50;99.90;;;;;;5008725;28;20507;-83
2023/12/02 11:45:08;;;;;;;8.50;4.43;;;11.60;99.90;;;;;;5041766;28;20081;-82
2023/12/02 11:47:56;;;;;;;9.35;4.55;;;11.70;99.90;;;;;;5039059;28;20179;-82
2023/12/02 11:50:31;;;;;;;10.13;5.15;;;11.70;99.90;;;;;;5023305;28;21398;-83
2023/12/02 11:53:36;;;;;;;9.35;4.68;;;11.60;99.90;;;;;;5047248;28;20040;-84
2023/12/02 11:56:13;;;;;;;9.68;4.70;;;11.50;99.90;;;;;;5030612;28;20041;-85
2023/12/02 11:58:44;;;;;;;8.87;4.93;;;11.50;99.90;;;;;;5011974;28;20269;-83
2023/12/02 12:01:31;;;;;;;9.85;4.88;;;11.40;99.90;;;;;;5033520;28;20039;-84
2023/12/02 12:04:42;;;;;;;11.45;5.13;;;11.30;99.90;;;;;;5059525;28;20416;-82
2023/12/02 12:07:17;;;;;;;11.88;5.22;;;11.20;99.90;;;;;;5056323;28;20117;-84
2023/12/02 12:09:47;;;;;;;10.05;4.60;;;10.80;99.90;;;;;;5025926;28;20037;-83
2023/12/02 12:12:14;;;;;;;9.40;4.27;;;9.70;99.90;;;;;;5028445;28;20221;-84
2023/12/02 12:14:42;;;;;;;9.50;4.80;;;10.70;99.90;;;;;;5020149;28;20074;-82
2023/12/02 12:17:08;;;;;;;13.18;5.90;;;10.60;99.90;;;;;;5047700;28;20481;-84
2023/12/02 12:19:34;;;;;;;12.57;5.50;;;10.50;99.90;;;;;;5023088;28;20035;-83
2023/12/02 12:22:00;;;;;;;11.43;5.70;;;10.50;99.90;;;;;;5016560;28;20078;-84
2023/12/02 12:24:26;;;;;;;11.07;4.97;;;10.50;99.90;;;;;;5022663;28;23000;-85
2023/12/02 12:26:53;;;;;;;10.20;4.60;;;10.40;99.90;;;;;;5026015;28;20029;-84
2023/12/02 12:29:19;;;;;;;10.52;4.47;;;10.50;99.90;;;;;;5017751;28;20281;-85
2023/12/02 12:31:45;;;;;;;11.10;4.53;;;10.50;99.90;;;;;;5049781;28;20031;-83
2023/12/02 12:34:12;;;;;;;10.98;4.90;;;10.80;99.90;;;;;;5015009;28;20221;-84
2023/12/02 12:36:39;;;;;;;11.65;4.82;;;10.50;99.90;;;;;;5024058;28;20032;-83
2023/12/02 12:39:07;;;;;;;12.52;5.05;;;10.50;99.90;;;;;;5038306;28;20175;-86
2023/12/02 12:41:42;;;;;;;13.27;5.20;;;10.40;99.90;;;;;;5048282;28;20020;-81
2023/12/02 12:44:08;;;;;;;11.17;4.80;;;9.30;99.90;;;;;;5022044;28;20218;-83
2023/12/02 12:46:34;;;;;;;12.43;5.47;;;10.20;99.90;;;;;;5037957;28;20426;-83
2023/12/02 12:49:04;;;;;;;12.68;5.00;;;10.10;99.90;;;;;;5024841;28;20038;-85
2023/12/02 12:51:32;;;;;;;11.98;5.10;;;10.00;99.90;;;;;;5029691;28;20028;-82
2023/12/02 12:54:05;;;;;;;11.13;4.83;;;9.90;99.90;;;;;;5024392;28;20039;-84
2023/12/02 12:56:46;;;;;;;12.75;5.75;;;9.80;99.90;;;;;;5039925;28;20440;-84
2023/12/02 12:59:16;;;;;;;11.70;5.25;;;9.40;99.90;;;;;;5020390;28;20906;-82
2023/12/02 13:01:55;;;;;;;12.63;5.30;;;9.70;99.90;;;;;;5051128;28;20037;-83
2023/12/02 13:04:41;;;;;;;12.57;5.35;;;9.70;99.90;;;;;;5047631;28;20333;-83
2023/12/02 13:07:15;;;;;;;13.10;5.20;;;9.80;99.90;;;;;;5002015;28;20477;-85
2023/12/02 13:09:51;;;;;;;11.35;5.20;;;9.90;99.90;;;;;;5040557;28;20064;-86